< < Back
Terminal Aerodrome Forecast


Current Version              Previous Versions:   1  2  3  4  5  6  7  8  9  

Terminal Aerodrome Forecast

362
FTUS42 KTAE 210500
TAFABY
TAF
KABY 210523Z 2106/2206 00000KT P6SM SKC
     FM211400 05005KT P6SM FEW250
     FM220000 00000KT P6SM SCT250=



Latest METAR

193
SAUS70 KWBC 211200 RRB
MTRABY
METAR KABY 211153Z 00000KT 6SM BR CLR 10/09 A3017 RMK AO2 SLP217 6////
7//// T01000089 10111 20089 53012 PNO $


USA.gov is the U.S. government's official web portal to all federal, state and local government web resources and services.